Aérodrome :
LOGIN :

S'inscrire | Disclaimer

   EN    FR    IT 

 










Légende :    VFR   VFR Marginal   IFR   IFR Intensif   IFR Très Intensif
Visi : 
Plafond : 
>= 8 km
>= 3000ft
5 à 8 km
1000 à 3000 ft
1500m à 5 km
500 à 1000 ft
800 à 1500m
200 à 500 ft
< 800m
< 200 ft
Symboles :   Orages  Brouillard  Fortes neiges  Fortes précipitations  Vent > 20 kt
SIGMETs :   Divers  Orages  Givrage  Turbulence  Onde Orograph.  Cendres Volcan.







- Altitude de l'aérodrome : 935 ft


EBFS - Florennes

DERNIER METAR :
  • 172255Z AUTO 01007KT 2700 BR SCT004/// 12/11 Q1022 YLO

METARs EXPIRÉS :
  • 172225Z AUTO 02005KT 2400 BR BKN004/// 12/11 Q1021 YLO
  • 172155Z AUTO 02006KT 2600 BR FEW005/// 12/11 Q1021 YLO
  • 172125Z AUTO 01006KT 2800 BR NCD 12/11 Q1021 YLO
  • 172104Z AUTO 03005KT 3600 BR NCD 13/11 Q1021 YLO
  • 172025Z AUTO 02006KT 4900 NCD 13/12 Q1021 GRN

TAF TAF EBFS
Valide du 17 à 19h jusqu'au 18 à 07h UTC


171541Z 1719/1807 03004KT 9999 SCT220
BECMG 1719/1721 02008KT
BECMG 1802/1804 04003KT 4500 BR
PROB30
TEMPO 1805/1807 2500 BR SCT004 SCT220
Pas de NOTAMs connus pour ce terrain.



MET'MAP, la Météo Aéronautique d'un coup d'oeil ! - Copyright ORBIFLY Décembre 2007 - Disclaimer

ORBIFLY MET'MAP TEAM :

Programmation & Développement : Alexandra Zaïnal
Conception & Développement : Baudouin d'Aumeries
Co-Programmation & Développement : Marc-Olivier Méhu
Soutien technique & logistique : Manuel Goepfert

Contact : metmap@orbifly.com




SOURCES & CREDITS :

   NOAA